sensor_id;sensor_type;location;lat;lon;timestamp;P1;durP1;ratioP1;P2;durP2;ratioP2
48327;SDS011;34136;51.022;7.082;2022-11-20T00:02:35;16.00;;;12.73;;
48327;SDS011;34136;51.022;7.082;2022-11-20T00:05:21;16.50;;;14.00;;
48327;SDS011;34136;51.022;7.082;2022-11-20T00:08:25;17.85;;;13.60;;
48327;SDS011;34136;51.022;7.082;2022-11-20T00:11:30;16.65;;;14.02;;
48327;SDS011;34136;51.022;7.082;2022-11-20T00:14:17;23.45;;;15.10;;
48327;SDS011;34136;51.022;7.082;2022-11-20T00:17:03;19.48;;;15.07;;
48327;SDS011;34136;51.022;7.082;2022-11-20T00:19:49;21.05;;;15.27;;
48327;SDS011;34136;51.022;7.082;2022-11-20T00:22:36;19.70;;;14.77;;
48327;SDS011;34136;51.022;7.082;2022-11-20T00:25:40;19.20;;;14.38;;
48327;SDS011;34136;51.022;7.082;2022-11-20T00:28:26;18.58;;;14.25;;
48327;SDS011;34136;51.022;7.082;2022-11-20T00:31:15;18.15;;;14.40;;
48327;SDS011;34136;51.022;7.082;2022-11-20T00:34:02;17.48;;;13.20;;
48327;SDS011;34136;51.022;7.082;2022-11-20T00:36:48;16.33;;;13.20;;
48327;SDS011;34136;51.022;7.082;2022-11-20T00:39:34;16.25;;;13.43;;
48327;SDS011;34136;51.022;7.082;2022-11-20T00:42:20;17.20;;;12.40;;
48327;SDS011;34136;51.022;7.082;2022-11-20T00:45:06;15.27;;;13.35;;
48327;SDS011;34136;51.022;7.082;2022-11-20T00:47:52;17.13;;;13.50;;
48327;SDS011;34136;51.022;7.082;2022-11-20T00:50:39;15.93;;;13.60;;
48327;SDS011;34136;51.022;7.082;2022-11-20T00:53:45;16.02;;;12.98;;
48327;SDS011;34136;51.022;7.082;2022-11-20T00:56:31;16.77;;;13.20;;
48327;SDS011;34136;51.022;7.082;2022-11-20T00:59:17;18.65;;;14.50;;
48327;SDS011;34136;51.022;7.082;2022-11-20T01:02:03;16.38;;;13.52;;
48327;SDS011;34136;51.022;7.082;2022-11-20T01:04:49;15.98;;;13.52;;
48327;SDS011;34136;51.022;7.082;2022-11-20T01:07:35;15.45;;;13.23;;
48327;SDS011;34136;51.022;7.082;2022-11-20T01:10:21;16.10;;;13.32;;
48327;SDS011;34136;51.022;7.082;2022-11-20T01:13:07;18.27;;;14.55;;
48327;SDS011;34136;51.022;7.082;2022-11-20T01:15:54;16.38;;;13.15;;
48327;SDS011;34136;51.022;7.082;2022-11-20T01:18:41;16.77;;;12.77;;
48327;SDS011;34136;51.022;7.082;2022-11-20T01:21:34;17.30;;;14.65;;
48327;SDS011;34136;51.022;7.082;2022-11-20T01:24:22;16.35;;;13.38;;
48327;SDS011;34136;51.022;7.082;2022-11-20T01:27:08;18.52;;;14.25;;
48327;SDS011;34136;51.022;7.082;2022-11-20T01:30:12;16.80;;;13.88;;
48327;SDS011;34136;51.022;7.082;2022-11-20T01:32:58;16.20;;;13.50;;
48327;SDS011;34136;51.022;7.082;2022-11-20T01:35:45;16.10;;;13.20;;
48327;SDS011;34136;51.022;7.082;2022-11-20T01:38:31;16.08;;;13.95;;
48327;SDS011;34136;51.022;7.082;2022-11-20T01:41:17;14.57;;;12.82;;
48327;SDS011;34136;51.022;7.082;2022-11-20T01:44:23;15.82;;;13.30;;
48327;SDS011;34136;51.022;7.082;2022-11-20T01:50:23;16.35;;;13.50;;
48327;SDS011;34136;51.022;7.082;2022-11-20T01:53:31;17.15;;;12.98;;
48327;SDS011;34136;51.022;7.082;2022-11-20T01:56:20;16.65;;;13.27;;
48327;SDS011;34136;51.022;7.082;2022-11-20T01:59:08;16.55;;;13.88;;
48327;SDS011;34136;51.022;7.082;2022-11-20T02:01:58;16.73;;;13.93;;
48327;SDS011;34136;51.022;7.082;2022-11-20T02:04:45;15.75;;;12.90;;
48327;SDS011;34136;51.022;7.082;2022-11-20T02:07:33;17.30;;;14.25;;
48327;SDS011;34136;51.022;7.082;2022-11-20T02:10:19;17.58;;;14.02;;
48327;SDS011;34136;51.022;7.082;2022-11-20T02:13:06;16.42;;;13.48;;
48327;SDS011;34136;51.022;7.082;2022-11-20T02:15:54;17.08;;;14.45;;
48327;SDS011;34136;51.022;7.082;2022-11-20T02:18:41;15.57;;;12.95;;
48327;SDS011;34136;51.022;7.082;2022-11-20T02:21:30;15.25;;;13.00;;
48327;SDS011;34136;51.022;7.082;2022-11-20T02:24:19;17.92;;;13.85;;
48327;SDS011;34136;51.022;7.082;2022-11-20T02:27:08;17.17;;;13.27;;
48327;SDS011;34136;51.022;7.082;2022-11-20T02:29:58;16.42;;;13.65;;
48327;SDS011;34136;51.022;7.082;2022-11-20T02:32:47;17.10;;;13.75;;
48327;SDS011;34136;51.022;7.082;2022-11-20T02:38:38;17.02;;;13.88;;
48327;SDS011;34136;51.022;7.082;2022-11-20T02:41:34;17.95;;;14.65;;
48327;SDS011;34136;51.022;7.082;2022-11-20T02:44:22;17.73;;;13.65;;
48327;SDS011;34136;51.022;7.082;2022-11-20T02:47:08;16.23;;;13.18;;
48327;SDS011;34136;51.022;7.082;2022-11-20T02:49:55;17.98;;;14.02;;
48327;SDS011;34136;51.022;7.082;2022-11-20T02:52:41;16.35;;;13.93;;
48327;SDS011;34136;51.022;7.082;2022-11-20T02:55:28;15.38;;;12.82;;
48327;SDS011;34136;51.022;7.082;2022-11-20T02:58:14;14.80;;;12.10;;
48327;SDS011;34136;51.022;7.082;2022-11-20T03:01:00;17.02;;;13.98;;
48327;SDS011;34136;51.022;7.082;2022-11-20T03:03:47;15.98;;;13.30;;
48327;SDS011;34136;51.022;7.082;2022-11-20T03:06:33;16.23;;;13.02;;
48327;SDS011;34136;51.022;7.082;2022-11-20T03:09:20;16.15;;;13.25;;
48327;SDS011;34136;51.022;7.082;2022-11-20T03:12:24;17.48;;;13.63;;
48327;SDS011;34136;51.022;7.082;2022-11-20T03:15:29;18.73;;;13.45;;
48327;SDS011;34136;51.022;7.082;2022-11-20T03:18:33;16.95;;;13.95;;
48327;SDS011;34136;51.022;7.082;2022-11-20T03:21:20;17.42;;;14.27;;
48327;SDS011;34136;51.022;7.082;2022-11-20T03:24:24;16.73;;;13.43;;
48327;SDS011;34136;51.022;7.082;2022-11-20T03:27:11;17.40;;;13.90;;
48327;SDS011;34136;51.022;7.082;2022-11-20T03:29:57;16.95;;;13.43;;
48327;SDS011;34136;51.022;7.082;2022-11-20T03:32:43;16.02;;;13.48;;
48327;SDS011;34136;51.022;7.082;2022-11-20T03:35:30;18.88;;;14.07;;
48327;SDS011;34136;51.022;7.082;2022-11-20T03:38:16;18.00;;;13.73;;
48327;SDS011;34136;51.022;7.082;2022-11-20T03:41:24;18.05;;;14.18;;
48327;SDS011;34136;51.022;7.082;2022-11-20T03:44:12;17.17;;;13.43;;
48327;SDS011;34136;51.022;7.082;2022-11-20T03:46:59;16.55;;;13.43;;
48327;SDS011;34136;51.022;7.082;2022-11-20T03:49:45;16.50;;;13.07;;
48327;SDS011;34136;51.022;7.082;2022-11-20T03:52:50;17.10;;;14.63;;
48327;SDS011;34136;51.022;7.082;2022-11-20T03:55:36;19.25;;;14.55;;
48327;SDS011;34136;51.022;7.082;2022-11-20T03:58:23;15.90;;;13.88;;
48327;SDS011;34136;51.022;7.082;2022-11-20T04:04:00;16.73;;;13.68;;
48327;SDS011;34136;51.022;7.082;2022-11-20T04:06:47;17.67;;;13.57;;
48327;SDS011;34136;51.022;7.082;2022-11-20T04:09:51;17.05;;;14.07;;
48327;SDS011;34136;51.022;7.082;2022-11-20T04:12:56;17.48;;;13.23;;
48327;SDS011;34136;51.022;7.082;2022-11-20T04:15:42;16.88;;;14.25;;
48327;SDS011;34136;51.022;7.082;2022-11-20T04:18:28;17.63;;;13.20;;
48327;SDS011;34136;51.022;7.082;2022-11-20T04:21:14;18.42;;;14.05;;
48327;SDS011;34136;51.022;7.082;2022-11-20T04:24:00;17.67;;;13.85;;
48327;SDS011;34136;51.022;7.082;2022-11-20T04:26:47;17.70;;;14.60;;
48327;SDS011;34136;51.022;7.082;2022-11-20T04:29:33;17.65;;;14.57;;
48327;SDS011;34136;51.022;7.082;2022-11-20T04:32:19;18.92;;;14.55;;
48327;SDS011;34136;51.022;7.082;2022-11-20T04:35:06;17.77;;;14.57;;
48327;SDS011;34136;51.022;7.082;2022-11-20T04:37:52;18.35;;;14.98;;
48327;SDS011;34136;51.022;7.082;2022-11-20T04:40:39;18.65;;;15.90;;
48327;SDS011;34136;51.022;7.082;2022-11-20T04:43:25;19.63;;;15.38;;
48327;SDS011;34136;51.022;7.082;2022-11-20T04:46:12;18.15;;;14.88;;
48327;SDS011;34136;51.022;7.082;2022-11-20T04:48:58;18.33;;;15.25;;
48327;SDS011;34136;51.022;7.082;2022-11-20T04:51:45;18.00;;;15.13;;
48327;SDS011;34136;51.022;7.082;2022-11-20T04:54:50;19.42;;;15.10;;
48327;SDS011;34136;51.022;7.082;2022-11-20T04:57:55;19.27;;;15.15;;
48327;SDS011;34136;51.022;7.082;2022-11-20T05:01:04;19.15;;;15.40;;
48327;SDS011;34136;51.022;7.082;2022-11-20T05:04:10;19.13;;;15.52;;
48327;SDS011;34136;51.022;7.082;2022-11-20T05:07:15;19.17;;;15.43;;
48327;SDS011;34136;51.022;7.082;2022-11-20T05:10:01;23.00;;;16.17;;
48327;SDS011;34136;51.022;7.082;2022-11-20T05:12:48;17.75;;;15.80;;
48327;SDS011;34136;51.022;7.082;2022-11-20T05:15:34;19.10;;;15.15;;
48327;SDS011;34136;51.022;7.082;2022-11-20T05:18:40;17.92;;;15.00;;
48327;SDS011;34136;51.022;7.082;2022-11-20T05:21:45;19.48;;;15.40;;
48327;SDS011;34136;51.022;7.082;2022-11-20T05:24:49;19.27;;;14.98;;
48327;SDS011;34136;51.022;7.082;2022-11-20T05:27:54;18.55;;;15.32;;
48327;SDS011;34136;51.022;7.082;2022-11-20T05:33:56;18.05;;;15.00;;
48327;SDS011;34136;51.022;7.082;2022-11-20T05:36:42;20.77;;;15.93;;
48327;SDS011;34136;51.022;7.082;2022-11-20T05:39:47;22.08;;;17.25;;
48327;SDS011;34136;51.022;7.082;2022-11-20T05:42:52;21.33;;;16.85;;
48327;SDS011;34136;51.022;7.082;2022-11-20T05:45:38;20.40;;;16.77;;
48327;SDS011;34136;51.022;7.082;2022-11-20T05:48:24;18.60;;;15.30;;
48327;SDS011;34136;51.022;7.082;2022-11-20T05:51:11;21.75;;;16.70;;
48327;SDS011;34136;51.022;7.082;2022-11-20T05:54:00;20.75;;;16.73;;
48327;SDS011;34136;51.022;7.082;2022-11-20T05:56:46;20.92;;;17.50;;
48327;SDS011;34136;51.022;7.082;2022-11-20T05:59:33;25.42;;;17.80;;
48327;SDS011;34136;51.022;7.082;2022-11-20T06:02:19;23.02;;;18.30;;
48327;SDS011;34136;51.022;7.082;2022-11-20T06:05:05;26.35;;;19.33;;
48327;SDS011;34136;51.022;7.082;2022-11-20T06:07:51;23.33;;;18.15;;
48327;SDS011;34136;51.022;7.082;2022-11-20T06:10:38;21.33;;;17.38;;
48327;SDS011;34136;51.022;7.082;2022-11-20T06:13:24;22.23;;;17.13;;
48327;SDS011;34136;51.022;7.082;2022-11-20T06:16:29;21.77;;;17.65;;
48327;SDS011;34136;51.022;7.082;2022-11-20T06:19:15;22.10;;;18.02;;
48327;SDS011;34136;51.022;7.082;2022-11-20T06:22:19;20.58;;;16.65;;
48327;SDS011;34136;51.022;7.082;2022-11-20T06:25:06;22.20;;;16.88;;
48327;SDS011;34136;51.022;7.082;2022-11-20T06:27:52;20.15;;;15.93;;
48327;SDS011;34136;51.022;7.082;2022-11-20T06:30:44;20.42;;;15.13;;
48327;SDS011;34136;51.022;7.082;2022-11-20T06:33:49;19.75;;;15.77;;
48327;SDS011;34136;51.022;7.082;2022-11-20T06:36:36;21.30;;;17.08;;
48327;SDS011;34136;51.022;7.082;2022-11-20T06:39:23;21.23;;;16.95;;
48327;SDS011;34136;51.022;7.082;2022-11-20T06:42:09;21.67;;;17.13;;
48327;SDS011;34136;51.022;7.082;2022-11-20T06:44:55;21.45;;;16.67;;
48327;SDS011;34136;51.022;7.082;2022-11-20T06:47:41;20.08;;;15.55;;
48327;SDS011;34136;51.022;7.082;2022-11-20T06:50:27;19.95;;;16.27;;
48327;SDS011;34136;51.022;7.082;2022-11-20T06:53:14;21.98;;;16.27;;
48327;SDS011;34136;51.022;7.082;2022-11-20T06:56:01;20.90;;;15.70;;
48327;SDS011;34136;51.022;7.082;2022-11-20T06:58:47;20.45;;;16.60;;
48327;SDS011;34136;51.022;7.082;2022-11-20T07:01:34;20.10;;;15.82;;
48327;SDS011;34136;51.022;7.082;2022-11-20T07:04:20;19.30;;;15.68;;
48327;SDS011;34136;51.022;7.082;2022-11-20T07:07:25;19.23;;;15.65;;
48327;SDS011;34136;51.022;7.082;2022-11-20T07:10:11;21.50;;;15.57;;
48327;SDS011;34136;51.022;7.082;2022-11-20T07:12:58;20.10;;;15.75;;
48327;SDS011;34136;51.022;7.082;2022-11-20T07:15:44;21.45;;;16.63;;
48327;SDS011;34136;51.022;7.082;2022-11-20T07:21:55;23.95;;;18.85;;
48327;SDS011;34136;51.022;7.082;2022-11-20T07:24:41;22.45;;;17.45;;
48327;SDS011;34136;51.022;7.082;2022-11-20T07:27:27;23.88;;;17.42;;
48327;SDS011;34136;51.022;7.082;2022-11-20T07:30:32;24.83;;;19.63;;
48327;SDS011;34136;51.022;7.082;2022-11-20T07:33:37;25.75;;;19.17;;
48327;SDS011;34136;51.022;7.082;2022-11-20T07:36:24;23.42;;;18.00;;
48327;SDS011;34136;51.022;7.082;2022-11-20T07:39:10;22.27;;;17.23;;
48327;SDS011;34136;51.022;7.082;2022-11-20T07:41:57;19.92;;;16.40;;
48327;SDS011;34136;51.022;7.082;2022-11-20T07:44:43;22.27;;;16.52;;
48327;SDS011;34136;51.022;7.082;2022-11-20T07:47:34;20.27;;;15.90;;
48327;SDS011;34136;51.022;7.082;2022-11-20T07:50:22;21.23;;;16.90;;
48327;SDS011;34136;51.022;7.082;2022-11-20T07:53:08;23.67;;;16.52;;
48327;SDS011;34136;51.022;7.082;2022-11-20T07:55:54;24.38;;;16.98;;
48327;SDS011;34136;51.022;7.082;2022-11-20T07:58:44;21.98;;;16.20;;
48327;SDS011;34136;51.022;7.082;2022-11-20T08:01:30;22.63;;;17.48;;
48327;SDS011;34136;51.022;7.082;2022-11-20T08:04:35;21.95;;;17.10;;
48327;SDS011;34136;51.022;7.082;2022-11-20T08:07:22;22.77;;;17.48;;
48327;SDS011;34136;51.022;7.082;2022-11-20T08:10:09;24.27;;;17.63;;
48327;SDS011;34136;51.022;7.082;2022-11-20T08:13:15;29.40;;;19.95;;
48327;SDS011;34136;51.022;7.082;2022-11-20T08:16:01;23.13;;;17.98;;
48327;SDS011;34136;51.022;7.082;2022-11-20T08:18:47;24.00;;;17.95;;
48327;SDS011;34136;51.022;7.082;2022-11-20T08:21:33;21.45;;;17.13;;
48327;SDS011;34136;51.022;7.082;2022-11-20T08:24:20;22.80;;;17.25;;
48327;SDS011;34136;51.022;7.082;2022-11-20T08:27:06;24.80;;;18.88;;
48327;SDS011;34136;51.022;7.082;2022-11-20T08:29:52;23.50;;;18.13;;
48327;SDS011;34136;51.022;7.082;2022-11-20T08:32:38;23.55;;;18.08;;
48327;SDS011;34136;51.022;7.082;2022-11-20T08:35:24;23.85;;;18.00;;
48327;SDS011;34136;51.022;7.082;2022-11-20T08:38:10;23.60;;;17.60;;
48327;SDS011;34136;51.022;7.082;2022-11-20T08:41:00;26.30;;;18.95;;
48327;SDS011;34136;51.022;7.082;2022-11-20T08:43:47;24.23;;;18.55;;
48327;SDS011;34136;51.022;7.082;2022-11-20T08:46:35;22.92;;;18.05;;
48327;SDS011;34136;51.022;7.082;2022-11-20T08:49:22;24.10;;;17.35;;
48327;SDS011;34136;51.022;7.082;2022-11-20T08:52:09;23.48;;;16.98;;
48327;SDS011;34136;51.022;7.082;2022-11-20T08:54:55;25.92;;;19.23;;
48327;SDS011;34136;51.022;7.082;2022-11-20T08:57:41;25.58;;;20.70;;
48327;SDS011;34136;51.022;7.082;2022-11-20T09:00:27;30.73;;;22.27;;
48327;SDS011;34136;51.022;7.082;2022-11-20T09:03:13;29.17;;;21.05;;
48327;SDS011;34136;51.022;7.082;2022-11-20T09:06:01;23.80;;;18.85;;
48327;SDS011;34136;51.022;7.082;2022-11-20T09:08:52;22.50;;;18.23;;
48327;SDS011;34136;51.022;7.082;2022-11-20T09:11:58;24.65;;;18.23;;
48327;SDS011;34136;51.022;7.082;2022-11-20T09:14:44;26.17;;;19.88;;
48327;SDS011;34136;51.022;7.082;2022-11-20T09:17:30;24.58;;;19.60;;
48327;SDS011;34136;51.022;7.082;2022-11-20T09:20:16;25.77;;;19.65;;
48327;SDS011;34136;51.022;7.082;2022-11-20T09:23:02;27.83;;;20.83;;
48327;SDS011;34136;51.022;7.082;2022-11-20T09:25:48;26.10;;;19.45;;
48327;SDS011;34136;51.022;7.082;2022-11-20T09:28:34;25.33;;;19.27;;
48327;SDS011;34136;51.022;7.082;2022-11-20T09:31:24;26.75;;;20.25;;
48327;SDS011;34136;51.022;7.082;2022-11-20T09:34:11;25.15;;;19.92;;
48327;SDS011;34136;51.022;7.082;2022-11-20T09:36:57;24.40;;;18.98;;
48327;SDS011;34136;51.022;7.082;2022-11-20T09:39:43;25.60;;;20.55;;
48327;SDS011;34136;51.022;7.082;2022-11-20T09:54:37;22.83;;;18.58;;
48327;SDS011;34136;51.022;7.082;2022-11-20T09:57:36;24.85;;;18.38;;
48327;SDS011;34136;51.022;7.082;2022-11-20T10:00:25;20.45;;;16.58;;
48327;SDS011;34136;51.022;7.082;2022-11-20T10:03:17;22.00;;;17.42;;
48327;SDS011;34136;51.022;7.082;2022-11-20T10:06:36;20.92;;;16.83;;
48327;SDS011;34136;51.022;7.082;2022-11-20T10:09:34;22.05;;;17.35;;
48327;SDS011;34136;51.022;7.082;2022-11-20T10:18:21;22.27;;;16.30;;
48327;SDS011;34136;51.022;7.082;2022-11-20T10:25:06;19.42;;;15.73;;
48327;SDS011;34136;51.022;7.082;2022-11-20T10:31:10;22.77;;;15.98;;
48327;SDS011;34136;51.022;7.082;2022-11-20T10:34:06;21.67;;;16.80;;
48327;SDS011;34136;51.022;7.082;2022-11-20T10:37:09;20.10;;;16.17;;
48327;SDS011;34136;51.022;7.082;2022-11-20T10:40:28;22.02;;;16.38;;
48327;SDS011;34136;51.022;7.082;2022-11-20T10:43:27;20.23;;;16.17;;
48327;SDS011;34136;51.022;7.082;2022-11-20T10:46:40;18.58;;;14.30;;
48327;SDS011;34136;51.022;7.082;2022-11-20T10:49:30;19.30;;;14.80;;
48327;SDS011;34136;51.022;7.082;2022-11-20T10:55:50;24.60;;;16.77;;
48327;SDS011;34136;51.022;7.082;2022-11-20T10:58:54;21.20;;;16.17;;
48327;SDS011;34136;51.022;7.082;2022-11-20T11:02:14;19.95;;;16.08;;
48327;SDS011;34136;51.022;7.082;2022-11-20T11:05:33;18.30;;;14.65;;
48327;SDS011;34136;51.022;7.082;2022-11-20T11:08:26;19.55;;;16.40;;
48327;SDS011;34136;51.022;7.082;2022-11-20T11:11:26;19.77;;;15.85;;
48327;SDS011;34136;51.022;7.082;2022-11-20T11:14:15;21.40;;;17.20;;
48327;SDS011;34136;51.022;7.082;2022-11-20T11:17:01;22.45;;;17.73;;
48327;SDS011;34136;51.022;7.082;2022-11-20T11:23:10;21.77;;;17.33;;
48327;SDS011;34136;51.022;7.082;2022-11-20T11:26:21;23.83;;;17.20;;
48327;SDS011;34136;51.022;7.082;2022-11-20T11:29:15;23.63;;;18.55;;
48327;SDS011;34136;51.022;7.082;2022-11-20T11:32:07;22.90;;;18.70;;
48327;SDS011;34136;51.022;7.082;2022-11-20T11:34:58;22.80;;;18.70;;
48327;SDS011;34136;51.022;7.082;2022-11-20T11:37:49;22.35;;;18.38;;
48327;SDS011;34136;51.022;7.082;2022-11-20T11:40:58;22.58;;;19.10;;
48327;SDS011;34136;51.022;7.082;2022-11-20T11:43:55;23.40;;;17.85;;
48327;SDS011;34136;51.022;7.082;2022-11-20T11:46:51;23.98;;;18.85;;
48327;SDS011;34136;51.022;7.082;2022-11-20T11:49:40;26.75;;;20.98;;
48327;SDS011;34136;51.022;7.082;2022-11-20T11:52:26;27.52;;;20.05;;
48327;SDS011;34136;51.022;7.082;2022-11-20T11:58:47;26.05;;;19.88;;
48327;SDS011;34136;51.022;7.082;2022-11-20T12:01:44;25.20;;;19.83;;
48327;SDS011;34136;51.022;7.082;2022-11-20T12:04:57;26.52;;;19.15;;
48327;SDS011;34136;51.022;7.082;2022-11-20T12:17:08;23.23;;;18.02;;
48327;SDS011;34136;51.022;7.082;2022-11-20T12:19:58;24.92;;;18.67;;
48327;SDS011;34136;51.022;7.082;2022-11-20T12:23:28;24.02;;;19.20;;
48327;SDS011;34136;51.022;7.082;2022-11-20T12:25:56;24.85;;;18.88;;
48327;SDS011;34136;51.022;7.082;2022-11-20T12:34:46;23.27;;;18.15;;
48327;SDS011;34136;51.022;7.082;2022-11-20T12:40:41;23.75;;;18.40;;
48327;SDS011;34136;51.022;7.082;2022-11-20T12:43:45;22.92;;;18.77;;
48327;SDS011;34136;51.022;7.082;2022-11-20T12:46:46;25.23;;;19.33;;
48327;SDS011;34136;51.022;7.082;2022-11-20T12:49:57;24.00;;;19.10;;
48327;SDS011;34136;51.022;7.082;2022-11-20T12:52:53;25.60;;;19.92;;
48327;SDS011;34136;51.022;7.082;2022-11-20T13:01:45;23.80;;;19.02;;
48327;SDS011;34136;51.022;7.082;2022-11-20T13:07:51;25.00;;;19.55;;
48327;SDS011;34136;51.022;7.082;2022-11-20T13:10:41;26.25;;;20.15;;
48327;SDS011;34136;51.022;7.082;2022-11-20T13:17:14;24.70;;;19.63;;
48327;SDS011;34136;51.022;7.082;2022-11-20T13:20:12;23.80;;;18.30;;
48327;SDS011;34136;51.022;7.082;2022-11-20T13:23:01;24.52;;;19.40;;
48327;SDS011;34136;51.022;7.082;2022-11-20T13:25:47;24.88;;;18.42;;
48327;SDS011;34136;51.022;7.082;2022-11-20T13:28:34;22.50;;;18.80;;
48327;SDS011;34136;51.022;7.082;2022-11-20T13:31:24;24.30;;;18.88;;
48327;SDS011;34136;51.022;7.082;2022-11-20T13:34:26;24.98;;;18.38;;
48327;SDS011;34136;51.022;7.082;2022-11-20T13:37:23;24.88;;;18.90;;
48327;SDS011;34136;51.022;7.082;2022-11-20T13:40:20;24.27;;;18.15;;
48327;SDS011;34136;51.022;7.082;2022-11-20T13:45:55;23.65;;;18.42;;
48327;SDS011;34136;51.022;7.082;2022-11-20T13:48:44;23.35;;;18.83;;
48327;SDS011;34136;51.022;7.082;2022-11-20T13:51:48;26.58;;;19.88;;
48327;SDS011;34136;51.022;7.082;2022-11-20T14:00:50;23.15;;;17.92;;
48327;SDS011;34136;51.022;7.082;2022-11-20T14:03:42;24.50;;;18.60;;
48327;SDS011;34136;51.022;7.082;2022-11-20T14:06:30;22.63;;;18.00;;
48327;SDS011;34136;51.022;7.082;2022-11-20T14:09:30;19.35;;;16.38;;
48327;SDS011;34136;51.022;7.082;2022-11-20T14:12:19;22.35;;;17.58;;
48327;SDS011;34136;51.022;7.082;2022-11-20T14:15:22;22.65;;;18.35;;
48327;SDS011;34136;51.022;7.082;2022-11-20T14:18:20;22.50;;;18.65;;
48327;SDS011;34136;51.022;7.082;2022-11-20T14:21:08;23.65;;;17.38;;
48327;SDS011;34136;51.022;7.082;2022-11-20T14:24:09;23.85;;;17.98;;
48327;SDS011;34136;51.022;7.082;2022-11-20T14:26:57;22.08;;;16.65;;
48327;SDS011;34136;51.022;7.082;2022-11-20T14:29:44;21.50;;;17.42;;
48327;SDS011;34136;51.022;7.082;2022-11-20T14:32:33;21.50;;;17.15;;
48327;SDS011;34136;51.022;7.082;2022-11-20T14:38:12;21.23;;;17.35;;
48327;SDS011;34136;51.022;7.082;2022-11-20T14:41:16;22.35;;;17.60;;
48327;SDS011;34136;51.022;7.082;2022-11-20T14:44:11;22.40;;;17.52;;
48327;SDS011;34136;51.022;7.082;2022-11-20T14:46:58;21.77;;;17.27;;
48327;SDS011;34136;51.022;7.082;2022-11-20T14:49:48;21.20;;;16.42;;
48327;SDS011;34136;51.022;7.082;2022-11-20T14:52:35;21.90;;;17.27;;
48327;SDS011;34136;51.022;7.082;2022-11-20T14:55:29;22.65;;;18.35;;
48327;SDS011;34136;51.022;7.082;2022-11-20T14:58:21;22.70;;;17.30;;
48327;SDS011;34136;51.022;7.082;2022-11-20T15:01:11;24.50;;;17.13;;
48327;SDS011;34136;51.022;7.082;2022-11-20T15:04:05;23.10;;;17.42;;
48327;SDS011;34136;51.022;7.082;2022-11-20T15:06:52;21.83;;;17.50;;
48327;SDS011;34136;51.022;7.082;2022-11-20T15:09:42;23.33;;;17.52;;
48327;SDS011;34136;51.022;7.082;2022-11-20T15:12:29;22.27;;;17.50;;
48327;SDS011;34136;51.022;7.082;2022-11-20T15:19:00;24.63;;;16.17;;
48327;SDS011;34136;51.022;7.082;2022-11-20T15:21:48;22.88;;;17.35;;
48327;SDS011;34136;51.022;7.082;2022-11-20T15:24:35;21.90;;;16.88;;
48327;SDS011;34136;51.022;7.082;2022-11-20T15:27:20;22.83;;;17.90;;
48327;SDS011;34136;51.022;7.082;2022-11-20T15:30:14;24.20;;;18.05;;
48327;SDS011;34136;51.022;7.082;2022-11-20T15:33:02;25.77;;;18.88;;
48327;SDS011;34136;51.022;7.082;2022-11-20T15:35:48;22.73;;;17.30;;
48327;SDS011;34136;51.022;7.082;2022-11-20T15:38:35;22.55;;;17.35;;
48327;SDS011;34136;51.022;7.082;2022-11-20T15:41:21;24.58;;;17.98;;
48327;SDS011;34136;51.022;7.082;2022-11-20T15:44:08;25.55;;;18.67;;
48327;SDS011;34136;51.022;7.082;2022-11-20T15:46:57;24.05;;;18.20;;
48327;SDS011;34136;51.022;7.082;2022-11-20T15:49:43;33.50;;;23.52;;
48327;SDS011;34136;51.022;7.082;2022-11-20T15:52:29;27.40;;;20.50;;
48327;SDS011;34136;51.022;7.082;2022-11-20T15:55:15;25.83;;;19.33;;
48327;SDS011;34136;51.022;7.082;2022-11-20T15:58:02;24.70;;;18.88;;
48327;SDS011;34136;51.022;7.082;2022-11-20T16:00:48;25.73;;;19.65;;
48327;SDS011;34136;51.022;7.082;2022-11-20T16:03:34;28.63;;;19.08;;
48327;SDS011;34136;51.022;7.082;2022-11-20T16:06:21;27.17;;;18.52;;
48327;SDS011;34136;51.022;7.082;2022-11-20T16:09:07;24.15;;;18.35;;
48327;SDS011;34136;51.022;7.082;2022-11-20T16:11:53;26.10;;;18.00;;
48327;SDS011;34136;51.022;7.082;2022-11-20T16:14:39;23.13;;;17.77;;
48327;SDS011;34136;51.022;7.082;2022-11-20T16:17:44;24.30;;;17.55;;
48327;SDS011;34136;51.022;7.082;2022-11-20T16:20:30;24.05;;;17.42;;
48327;SDS011;34136;51.022;7.082;2022-11-20T16:23:16;25.20;;;18.73;;
48327;SDS011;34136;51.022;7.082;2022-11-20T16:26:12;24.90;;;17.30;;
48327;SDS011;34136;51.022;7.082;2022-11-20T16:29:01;23.02;;;17.63;;
48327;SDS011;34136;51.022;7.082;2022-11-20T16:31:49;23.98;;;18.13;;
48327;SDS011;34136;51.022;7.082;2022-11-20T16:34:35;21.70;;;15.85;;
48327;SDS011;34136;51.022;7.082;2022-11-20T16:37:21;25.05;;;17.63;;
48327;SDS011;34136;51.022;7.082;2022-11-20T16:40:07;19.98;;;15.25;;
48327;SDS011;34136;51.022;7.082;2022-11-20T16:42:54;22.35;;;15.60;;
48327;SDS011;34136;51.022;7.082;2022-11-20T16:45:42;20.50;;;15.20;;
48327;SDS011;34136;51.022;7.082;2022-11-20T16:48:28;21.08;;;15.00;;
48327;SDS011;34136;51.022;7.082;2022-11-20T16:51:15;16.58;;;12.57;;
48327;SDS011;34136;51.022;7.082;2022-11-20T16:54:02;16.48;;;13.02;;
48327;SDS011;34136;51.022;7.082;2022-11-20T16:56:49;21.38;;;13.07;;
48327;SDS011;34136;51.022;7.082;2022-11-20T16:59:35;17.08;;;12.40;;
48327;SDS011;34136;51.022;7.082;2022-11-20T17:02:22;16.23;;;11.35;;
48327;SDS011;34136;51.022;7.082;2022-11-20T17:05:08;14.68;;;10.60;;
48327;SDS011;34136;51.022;7.082;2022-11-20T17:07:55;16.60;;;10.02;;
48327;SDS011;34136;51.022;7.082;2022-11-20T17:10:41;13.80;;;10.30;;
48327;SDS011;34136;51.022;7.082;2022-11-20T17:13:29;13.85;;;10.32;;
48327;SDS011;34136;51.022;7.082;2022-11-20T17:16:19;16.65;;;9.30;;
48327;SDS011;34136;51.022;7.082;2022-11-20T17:19:06;15.35;;;10.73;;
48327;SDS011;34136;51.022;7.082;2022-11-20T17:21:53;12.70;;;8.60;;
48327;SDS011;34136;51.022;7.082;2022-11-20T17:24:39;15.60;;;9.30;;
48327;SDS011;34136;51.022;7.082;2022-11-20T17:27:25;13.05;;;8.45;;
48327;SDS011;34136;51.022;7.082;2022-11-20T17:30:12;11.32;;;8.75;;
48327;SDS011;34136;51.022;7.082;2022-11-20T17:32:58;13.15;;;8.75;;
48327;SDS011;34136;51.022;7.082;2022-11-20T17:35:44;16.20;;;8.07;;
48327;SDS011;34136;51.022;7.082;2022-11-20T17:38:30;13.27;;;7.65;;
48327;SDS011;34136;51.022;7.082;2022-11-20T17:41:18;14.48;;;8.52;;
48327;SDS011;34136;51.022;7.082;2022-11-20T17:44:08;10.13;;;6.05;;
48327;SDS011;34136;51.022;7.082;2022-11-20T17:47:14;9.68;;;5.68;;
48327;SDS011;34136;51.022;7.082;2022-11-20T17:50:00;10.43;;;5.80;;
48327;SDS011;34136;51.022;7.082;2022-11-20T17:52:46;7.55;;;5.40;;
48327;SDS011;34136;51.022;7.082;2022-11-20T17:55:32;11.75;;;6.53;;
48327;SDS011;34136;51.022;7.082;2022-11-20T17:58:18;9.88;;;5.68;;
48327;SDS011;34136;51.022;7.082;2022-11-20T18:04:09;9.02;;;4.90;;
48327;SDS011;34136;51.022;7.082;2022-11-20T18:06:56;8.65;;;5.32;;
48327;SDS011;34136;51.022;7.082;2022-11-20T18:09:42;11.95;;;4.57;;
48327;SDS011;34136;51.022;7.082;2022-11-20T18:12:28;5.95;;;3.83;;
48327;SDS011;34136;51.022;7.082;2022-11-20T18:15:14;7.63;;;5.57;;
48327;SDS011;34136;51.022;7.082;2022-11-20T18:18:01;9.10;;;5.78;;
48327;SDS011;34136;51.022;7.082;2022-11-20T18:20:51;8.35;;;5.30;;
48327;SDS011;34136;51.022;7.082;2022-11-20T18:23:56;7.35;;;5.07;;